createdAt,value
2023-04-16T00:01:28.405Z,10.93
2023-04-16T00:03:55.760Z,10.38
2023-04-16T00:06:23.206Z,9.20
2023-04-16T00:08:51.556Z,10.43
2023-04-16T00:11:18.269Z,8.17
2023-04-16T00:13:45.004Z,10.60
2023-04-16T00:16:11.751Z,9.13
2023-04-16T00:18:39.342Z,9.30
2023-04-16T00:21:07.083Z,9.95
2023-04-16T00:23:33.987Z,8.00
2023-04-16T00:26:00.780Z,7.40
2023-04-16T00:28:27.688Z,9.43
2023-04-16T00:30:55.186Z,10.23
2023-04-16T00:33:23.892Z,9.45
2023-04-16T00:35:51.176Z,11.50
2023-04-16T00:38:17.976Z,9.45
2023-04-16T00:40:44.670Z,10.18
2023-04-16T00:43:11.403Z,10.88
2023-04-16T00:45:38.553Z,10.38
2023-04-16T00:48:05.972Z,9.27
2023-04-16T00:50:33.347Z,8.98
2023-04-16T00:53:00.705Z,8.88
2023-04-16T00:55:27.546Z,11.77
2023-04-16T00:57:54.301Z,11.95
2023-04-16T01:00:21.519Z,12.43
2023-04-16T01:02:48.480Z,12.98
2023-04-16T01:05:16.440Z,12.10
2023-04-16T01:07:43.188Z,10.65
2023-04-16T01:10:10.072Z,11.82
2023-04-16T01:12:36.780Z,13.23
2023-04-16T01:15:03.745Z,14.10
2023-04-16T01:17:30.476Z,12.75
2023-04-16T01:20:00.606Z,13.05
2023-04-16T01:22:28.360Z,12.20
2023-04-16T01:24:55.062Z,12.90
2023-04-16T01:27:21.858Z,11.98
2023-04-16T01:29:48.637Z,11.50
2023-04-16T01:32:15.517Z,12.45
2023-04-16T01:34:42.206Z,11.80
2023-04-16T01:37:09.028Z,12.83
2023-04-16T01:39:35.704Z,18.67
2023-04-16T01:42:02.581Z,48.75
2023-04-16T01:44:30.897Z,41.22
2023-04-16T01:46:57.787Z,47.60
2023-04-16T01:49:24.766Z,25.63
2023-04-16T01:51:51.687Z,29.77
2023-04-16T01:54:18.430Z,18.10
2023-04-16T01:56:45.310Z,20.65
2023-04-16T01:59:12.400Z,11.80
2023-04-16T02:01:39.410Z,21.83
2023-04-16T02:04:07.456Z,22.65
2023-04-16T02:06:34.330Z,16.20
2023-04-16T02:09:01.062Z,15.82
2023-04-16T02:11:27.821Z,14.68
2023-04-16T02:13:54.592Z,11.17
2023-04-16T02:16:21.432Z,11.50
2023-04-16T02:18:48.170Z,11.23
2023-04-16T02:21:14.893Z,11.77
2023-04-16T02:23:41.637Z,11.02
2023-04-16T02:26:08.364Z,10.60
2023-04-16T02:28:35.148Z,12.05
2023-04-16T02:31:01.847Z,10.65
2023-04-16T02:33:28.721Z,12.65
2023-04-16T02:35:55.524Z,28.05
2023-04-16T02:38:22.260Z,26.27
2023-04-16T02:40:49.101Z,13.80
2023-04-16T02:43:15.852Z,11.73
2023-04-16T02:45:42.712Z,13.20
2023-04-16T02:48:09.993Z,11.27
2023-04-16T02:50:36.681Z,17.33
2023-04-16T02:53:04.376Z,25.83
2023-04-16T02:55:31.131Z,19.25
2023-04-16T02:57:57.842Z,19.45
2023-04-16T03:00:24.623Z,19.40
2023-04-16T03:02:51.579Z,19.93
2023-04-16T03:05:18.508Z,19.20
2023-04-16T03:07:45.386Z,12.15
2023-04-16T03:10:13.353Z,12.40
2023-04-16T03:12:40.114Z,11.50
2023-04-16T03:15:07.278Z,11.53
2023-04-16T03:17:34.160Z,10.88
2023-04-16T03:20:00.970Z,10.30
2023-04-16T03:22:27.736Z,10.75
2023-04-16T03:24:54.511Z,9.57
2023-04-16T03:27:21.272Z,12.57
2023-04-16T03:29:48.007Z,11.57
2023-04-16T03:32:14.784Z,13.13
2023-04-16T03:34:41.474Z,18.25
2023-04-16T03:37:11.921Z,20.10
2023-04-16T03:39:38.864Z,14.77
2023-04-16T03:42:05.607Z,17.38
2023-04-16T03:44:32.303Z,16.83
2023-04-16T03:46:59.223Z,12.38
2023-04-16T03:49:26.121Z,16.30
2023-04-16T03:51:52.857Z,12.27
2023-04-16T03:54:21.293Z,12.75
2023-04-16T03:56:49.257Z,15.35
2023-04-16T03:59:16.011Z,17.17
2023-04-16T04:01:42.783Z,17.83
2023-04-16T04:04:09.951Z,13.53
2023-04-16T04:06:36.745Z,13.48
2023-04-16T04:09:03.962Z,14.23
2023-04-16T04:11:30.677Z,8.80
2023-04-16T04:13:57.405Z,10.25
2023-04-16T04:16:24.141Z,12.70
2023-04-16T04:18:50.853Z,10.23
2023-04-16T04:21:17.610Z,10.20
2023-04-16T04:23:44.484Z,10.60
2023-04-16T04:26:11.344Z,10.25
2023-04-16T04:28:38.006Z,11.33
2023-04-16T04:31:04.886Z,10.15
2023-04-16T04:33:31.701Z,10.45
2023-04-16T04:35:58.475Z,10.82
2023-04-16T04:38:25.396Z,12.68
2023-04-16T04:40:53.022Z,12.90
2023-04-16T04:43:20.372Z,11.75
2023-04-16T04:45:47.400Z,11.95
2023-04-16T04:48:14.149Z,11.13
2023-04-16T04:50:41.530Z,9.30
2023-04-16T04:53:11.457Z,12.40
2023-04-16T04:55:38.917Z,11.88
2023-04-16T04:58:06.550Z,13.40
2023-04-16T05:00:33.776Z,14.00
2023-04-16T05:03:06.109Z,14.60
2023-04-16T05:05:33.037Z,12.13
2023-04-16T05:07:59.843Z,14.20
2023-04-16T05:10:27.269Z,13.35
2023-04-16T05:12:53.995Z,14.75
2023-04-16T05:15:20.737Z,12.55
2023-04-16T05:17:47.510Z,12.83
2023-04-16T05:20:14.585Z,13.88
2023-04-16T05:22:41.436Z,15.30
2023-04-16T05:25:08.567Z,11.40
2023-04-16T05:27:35.377Z,11.98
2023-04-16T05:30:02.467Z,12.63
2023-04-16T05:32:29.263Z,13.98
2023-04-16T05:34:56.006Z,13.23
2023-04-16T05:37:22.702Z,12.07
2023-04-16T05:39:49.413Z,13.00
2023-04-16T05:42:16.297Z,10.93
2023-04-16T05:44:43.042Z,11.05
2023-04-16T05:47:09.710Z,13.27
2023-04-16T05:49:39.197Z,10.68
2023-04-16T05:52:06.261Z,13.43
2023-04-16T05:54:32.928Z,13.03
2023-04-16T05:57:01.120Z,12.35
2023-04-16T05:59:28.114Z,16.52
2023-04-16T06:01:54.865Z,14.18
2023-04-16T06:04:21.630Z,12.90
2023-04-16T06:06:48.545Z,12.37
2023-04-16T06:09:15.382Z,12.80
2023-04-16T06:11:42.170Z,15.48
2023-04-16T06:14:08.889Z,12.60
2023-04-16T06:16:35.549Z,13.25
2023-04-16T06:19:02.369Z,11.47
2023-04-16T06:21:29.354Z,14.15
2023-04-16T06:23:56.218Z,12.95
2023-04-16T06:26:23.074Z,13.70
2023-04-16T06:28:50.378Z,13.68
2023-04-16T06:31:17.174Z,13.37
2023-04-16T06:33:43.935Z,15.93
2023-04-16T06:36:11.541Z,14.15
2023-04-16T06:38:38.507Z,19.15
2023-04-16T06:41:05.383Z,16.17
2023-04-16T06:43:33.511Z,16.47
2023-04-16T06:46:00.277Z,14.55
2023-04-16T06:48:27.436Z,17.10
2023-04-16T06:50:55.000Z,14.95
2023-04-16T06:53:21.797Z,17.95
2023-04-16T06:55:48.472Z,17.67
2023-04-16T06:58:15.224Z,14.23
2023-04-16T07:00:42.008Z,14.10
2023-04-16T07:03:08.881Z,14.20
2023-04-16T07:05:36.063Z,15.55
2023-04-16T07:08:02.834Z,17.63
2023-04-16T07:10:29.600Z,12.23
2023-04-16T07:12:56.356Z,11.52
2023-04-16T07:15:23.125Z,10.38
2023-04-16T07:17:49.914Z,10.15
2023-04-16T07:20:18.277Z,12.03
2023-04-16T07:22:45.058Z,12.23
2023-04-16T07:25:11.756Z,10.10
2023-04-16T07:27:38.509Z,9.25
2023-04-16T07:30:05.932Z,8.65
2023-04-16T07:32:32.756Z,8.00
2023-04-16T07:34:59.592Z,7.90
2023-04-16T07:37:26.400Z,8.60
2023-04-16T07:39:53.195Z,6.00
2023-04-16T07:42:20.846Z,3.72
2023-04-16T07:44:47.638Z,3.90
2023-04-16T07:47:14.288Z,3.70
2023-04-16T07:49:40.975Z,3.78
2023-04-16T07:52:07.679Z,3.70
2023-04-16T07:54:34.520Z,3.58
2023-04-16T07:57:01.295Z,4.07
2023-04-16T07:59:28.108Z,3.75
2023-04-16T08:01:55.088Z,3.22
2023-04-16T08:04:25.730Z,3.70
2023-04-16T08:06:53.808Z,3.72
2023-04-16T08:09:21.653Z,3.23
2023-04-16T08:11:49.876Z,3.88
2023-04-16T08:14:17.196Z,4.43
2023-04-16T08:16:43.930Z,3.63
2023-04-16T08:19:11.022Z,4.15
2023-04-16T08:21:38.038Z,3.07
2023-04-16T08:24:04.802Z,3.40
2023-04-16T08:26:31.475Z,4.88
2023-04-16T08:28:58.217Z,3.30
2023-04-16T08:31:25.038Z,4.35
2023-04-16T08:33:51.811Z,3.50
2023-04-16T08:36:18.586Z,5.57
2023-04-16T08:38:45.282Z,2.88
2023-04-16T08:41:13.208Z,3.28
2023-04-16T08:43:45.082Z,4.10
2023-04-16T08:46:12.460Z,3.20
2023-04-16T08:48:43.188Z,4.05
2023-04-16T08:51:11.171Z,2.80
2023-04-16T08:53:49.349Z,3.40
2023-04-16T08:56:17.338Z,2.53
2023-04-16T08:58:45.385Z,3.10
2023-04-16T09:01:12.203Z,3.35
2023-04-16T09:03:39.431Z,2.33
2023-04-16T09:06:06.553Z,2.63
2023-04-16T09:08:35.748Z,2.10
2023-04-16T09:11:02.560Z,2.70
2023-04-16T09:13:30.648Z,1.85
2023-04-16T09:15:57.821Z,3.53
2023-04-16T09:18:24.784Z,2.20
2023-04-16T09:20:52.127Z,1.88
2023-04-16T09:23:18.887Z,3.10
2023-04-16T09:25:45.625Z,2.38
2023-04-16T09:28:12.492Z,2.25
2023-04-16T09:30:39.281Z,3.60
2023-04-16T09:33:22.354Z,2.50
2023-04-16T09:35:50.858Z,2.90
2023-04-16T09:38:18.021Z,2.55
2023-04-16T09:40:45.192Z,2.03
2023-04-16T09:43:18.988Z,2.58
2023-04-16T09:45:52.655Z,3.67
2023-04-16T09:48:30.011Z,2.60
2023-04-16T09:50:57.902Z,2.28
2023-04-16T09:53:29.659Z,1.88
2023-04-16T09:56:05.035Z,1.80
2023-04-16T09:58:32.377Z,4.25
2023-04-16T10:01:03.277Z,2.73
2023-04-16T10:03:31.892Z,3.67
2023-04-16T10:06:18.502Z,2.08
2023-04-16T10:08:52.688Z,1.60
2023-04-16T10:11:20.495Z,2.20
2023-04-16T10:13:47.382Z,2.93
2023-04-16T10:16:14.220Z,2.22
2023-04-16T10:18:42.853Z,2.13
2023-04-16T10:21:12.959Z,3.03
2023-04-16T10:23:40.349Z,3.63
2023-04-16T10:26:07.205Z,2.47
2023-04-16T10:28:35.540Z,2.45
2023-04-16T10:31:04.128Z,2.00
2023-04-16T10:33:36.470Z,1.83
2023-04-16T10:36:10.439Z,2.28
2023-04-16T10:38:53.756Z,2.23
2023-04-16T10:41:21.140Z,2.33
2023-04-16T10:43:49.584Z,2.03
2023-04-16T10:46:27.322Z,1.63
2023-04-16T10:48:54.788Z,1.98
2023-04-16T10:51:26.082Z,2.00
2023-04-16T10:53:55.048Z,2.40
2023-04-16T10:56:27.922Z,1.90
2023-04-16T10:58:56.298Z,1.80
2023-04-16T11:01:34.059Z,2.30
2023-04-16T11:04:22.281Z,1.93
2023-04-16T11:07:07.595Z,3.22
2023-04-16T11:09:54.583Z,2.58
2023-04-16T11:12:23.767Z,3.00
2023-04-16T11:14:55.202Z,3.80
2023-04-16T11:17:22.393Z,2.20
2023-04-16T11:19:49.287Z,1.92
2023-04-16T11:22:17.610Z,1.73
2023-04-16T11:24:45.676Z,6.07
2023-04-16T11:27:14.010Z,1.90
2023-04-16T11:29:41.471Z,1.77
2023-04-16T11:32:08.300Z,3.20
2023-04-16T11:34:35.165Z,1.90
2023-04-16T11:37:01.948Z,2.17
2023-04-16T11:39:28.607Z,1.92
2023-04-16T11:41:56.011Z,2.00
2023-04-16T11:44:24.467Z,1.63
2023-04-16T11:46:52.237Z,1.80
2023-04-16T11:49:31.181Z,1.80
2023-04-16T11:51:58.516Z,2.72
2023-04-16T11:54:25.975Z,3.67
2023-04-16T11:56:53.686Z,1.50
2023-04-16T11:59:23.137Z,1.33
2023-04-16T12:01:52.040Z,2.45
2023-04-16T12:04:21.389Z,1.45
2023-04-16T12:07:07.940Z,2.03
2023-04-16T12:09:38.521Z,2.50
2023-04-16T12:12:07.058Z,1.90
2023-04-16T12:14:33.839Z,1.50
2023-04-16T12:17:22.407Z,1.65
2023-04-16T12:19:55.749Z,2.00
2023-04-16T12:22:28.307Z,1.67
2023-04-16T12:25:06.841Z,1.45
2023-04-16T12:27:51.482Z,1.60
2023-04-16T12:30:21.157Z,1.70
2023-04-16T12:32:49.988Z,1.70
2023-04-16T12:35:33.255Z,1.90
2023-04-16T12:38:00.665Z,1.92
2023-04-16T12:40:27.586Z,1.90
2023-04-16T12:42:54.905Z,1.80
2023-04-16T12:45:22.296Z,1.90
2023-04-16T12:47:50.536Z,1.75
2023-04-16T12:50:17.523Z,1.67
2023-04-16T12:52:44.377Z,2.72
2023-04-16T12:55:11.104Z,3.00
2023-04-16T12:57:37.840Z,1.90
2023-04-16T13:00:06.637Z,3.75
2023-04-16T13:02:34.123Z,2.20
2023-04-16T13:05:01.476Z,1.70
2023-04-16T13:07:28.315Z,1.83
2023-04-16T13:09:55.101Z,2.47
2023-04-16T13:12:21.862Z,1.63
2023-04-16T13:14:48.587Z,1.92
2023-04-16T13:17:15.484Z,1.75
2023-04-16T13:19:42.171Z,1.30
2023-04-16T13:22:09.409Z,1.30
2023-04-16T13:24:36.242Z,1.80
2023-04-16T13:27:03.092Z,1.00
2023-04-16T13:29:30.145Z,1.50
2023-04-16T13:31:57.365Z,1.15
2023-04-16T13:34:24.072Z,1.60
2023-04-16T13:36:50.758Z,1.30
2023-04-16T13:39:17.591Z,1.25
2023-04-16T13:41:44.383Z,1.30
2023-04-16T13:44:11.196Z,1.40
2023-04-16T13:46:38.064Z,1.33
2023-04-16T13:49:04.762Z,1.65
2023-04-16T13:51:32.116Z,1.52
2023-04-16T13:53:58.891Z,2.88
2023-04-16T13:56:26.017Z,4.57
2023-04-16T13:58:52.798Z,1.20
2023-04-16T14:01:19.785Z,1.85
2023-04-16T14:03:46.729Z,1.23
2023-04-16T14:06:14.990Z,1.20
2023-04-16T14:08:41.648Z,1.23
2023-04-16T14:11:09.159Z,2.77
2023-04-16T14:13:36.385Z,1.83
2023-04-16T14:16:03.164Z,1.63
2023-04-16T14:18:30.038Z,1.20
2023-04-16T14:20:56.837Z,2.67
2023-04-16T14:23:23.550Z,1.33
2023-04-16T14:25:50.269Z,1.25
2023-04-16T14:28:17.127Z,1.10
2023-04-16T14:30:43.902Z,1.10
2023-04-16T14:33:10.671Z,1.80
2023-04-16T14:35:37.454Z,1.73
2023-04-16T14:38:04.223Z,0.88
2023-04-16T14:40:31.277Z,1.23
2023-04-16T14:42:57.938Z,1.30
2023-04-16T14:45:28.995Z,1.80
2023-04-16T14:47:56.023Z,1.20
2023-04-16T14:50:22.855Z,1.00
2023-04-16T14:52:50.790Z,2.03
2023-04-16T14:55:17.535Z,1.30
2023-04-16T14:57:44.322Z,1.05
2023-04-16T15:00:11.993Z,2.53
2023-04-16T15:02:39.007Z,1.30
2023-04-16T15:05:07.823Z,1.67
2023-04-16T15:07:34.559Z,1.50
2023-04-16T15:10:01.325Z,1.45
2023-04-16T15:12:28.081Z,1.43
2023-04-16T15:14:54.869Z,1.08
2023-04-16T15:17:21.706Z,0.70
2023-04-16T15:19:48.551Z,0.80
2023-04-16T15:22:15.561Z,0.90
2023-04-16T15:24:42.275Z,1.00
2023-04-16T15:27:11.546Z,1.95
2023-04-16T15:29:38.763Z,1.23
2023-04-16T15:32:06.990Z,0.80
2023-04-16T15:34:33.713Z,3.00
2023-04-16T15:37:00.642Z,0.97
2023-04-16T15:39:27.475Z,0.90
2023-04-16T15:42:01.432Z,2.25
2023-04-16T15:44:31.040Z,1.02
2023-04-16T15:46:57.831Z,2.08
2023-04-16T15:49:24.850Z,2.93
2023-04-16T15:51:52.417Z,2.70
2023-04-16T15:54:19.307Z,3.45
2023-04-16T15:56:46.669Z,1.77
2023-04-16T15:59:13.692Z,1.65
2023-04-16T16:01:40.903Z,1.23
2023-04-16T16:04:08.199Z,1.92
2023-04-16T16:06:35.248Z,1.92
2023-04-16T16:09:02.038Z,2.03
2023-04-16T16:11:28.761Z,1.73
2023-04-16T16:13:55.505Z,1.90
2023-04-16T16:16:22.333Z,3.20
2023-04-16T16:18:49.049Z,1.95
2023-04-16T16:21:16.136Z,1.88
2023-04-16T16:23:42.899Z,1.52
2023-04-16T16:26:09.689Z,1.30
2023-04-16T16:28:38.956Z,2.47
2023-04-16T16:31:06.902Z,1.23
2023-04-16T16:33:33.743Z,1.40
2023-04-16T16:36:00.584Z,1.08
2023-04-16T16:38:27.665Z,1.50
2023-04-16T16:40:54.446Z,1.83
2023-04-16T16:43:21.446Z,2.92
2023-04-16T16:45:48.503Z,1.25
2023-04-16T16:48:15.313Z,1.38
2023-04-16T16:50:42.109Z,2.53
2023-04-16T16:53:09.138Z,1.90
2023-04-16T16:55:36.046Z,1.65
2023-04-16T16:58:03.449Z,1.90
2023-04-16T17:00:30.579Z,1.67
2023-04-16T17:02:57.504Z,1.30
2023-04-16T17:05:24.390Z,2.95
2023-04-16T17:07:51.121Z,0.80
2023-04-16T17:10:21.042Z,0.82
2023-04-16T17:12:51.161Z,1.08
2023-04-16T17:15:20.580Z,1.30
2023-04-16T17:17:48.445Z,1.63
2023-04-16T17:20:15.712Z,1.75
2023-04-16T17:22:42.695Z,3.50
2023-04-16T17:25:09.741Z,4.40
2023-04-16T17:27:36.725Z,2.73
2023-04-16T17:30:05.464Z,3.95
2023-04-16T17:32:32.886Z,2.95
2023-04-16T17:35:00.948Z,3.35
2023-04-16T17:37:27.860Z,3.67
2023-04-16T17:39:54.580Z,3.80
2023-04-16T17:42:21.685Z,4.00
2023-04-16T17:44:48.401Z,3.70
2023-04-16T17:47:15.084Z,3.10
2023-04-16T17:49:41.919Z,2.78
2023-04-16T17:52:08.692Z,3.27
2023-04-16T17:54:35.950Z,2.13
2023-04-16T17:57:02.934Z,2.42
2023-04-16T17:59:29.610Z,2.20
2023-04-16T18:01:56.734Z,1.98
2023-04-16T18:04:23.696Z,2.00
2023-04-16T18:06:50.905Z,2.67
2023-04-16T18:09:19.197Z,2.15
2023-04-16T18:11:46.046Z,1.60
2023-04-16T18:14:16.673Z,3.35
2023-04-16T18:16:43.449Z,4.70
2023-04-16T18:19:10.258Z,3.40
2023-04-16T18:21:37.025Z,3.67
2023-04-16T18:24:03.880Z,2.50
2023-04-16T18:26:31.171Z,2.28
2023-04-16T18:29:00.427Z,2.10
2023-04-16T18:31:27.927Z,2.03
2023-04-16T18:33:58.101Z,2.17
2023-04-16T18:36:26.817Z,2.47
2023-04-16T18:39:01.628Z,2.28
2023-04-16T18:41:29.626Z,2.23
2023-04-16T18:43:56.594Z,2.65
2023-04-16T18:46:23.562Z,5.38
2023-04-16T18:48:50.314Z,2.47
2023-04-16T18:51:17.169Z,4.65
2023-04-16T18:53:45.679Z,2.23
2023-04-16T18:56:12.711Z,2.88
2023-04-16T18:58:39.405Z,3.05
2023-04-16T19:01:11.016Z,2.75
2023-04-16T19:03:38.810Z,2.30
2023-04-16T19:06:06.254Z,5.27
2023-04-16T19:08:33.105Z,3.30
2023-04-16T19:10:59.999Z,4.15
2023-04-16T19:13:26.775Z,3.72
2023-04-16T19:16:00.857Z,3.45
2023-04-16T19:18:27.845Z,2.90
2023-04-16T19:21:01.433Z,3.50
2023-04-16T19:23:28.422Z,3.83
2023-04-16T19:25:58.308Z,6.80
2023-04-16T19:28:25.523Z,5.90
2023-04-16T19:30:53.238Z,2.67
2023-04-16T19:33:20.418Z,3.63
2023-04-16T19:35:47.662Z,4.38
2023-04-16T19:38:14.473Z,4.25
2023-04-16T19:40:45.040Z,3.47
2023-04-16T19:43:11.745Z,4.93
2023-04-16T19:45:52.405Z,3.08
2023-04-16T19:48:22.060Z,3.47
2023-04-16T19:50:48.902Z,2.95
2023-04-16T19:53:17.185Z,3.90
2023-04-16T19:55:44.050Z,3.57
2023-04-16T19:58:10.898Z,3.53
2023-04-16T20:00:38.900Z,5.28
2023-04-16T20:03:06.225Z,4.05
2023-04-16T20:05:33.152Z,5.15
2023-04-16T20:08:00.002Z,4.20
2023-04-16T20:10:27.727Z,5.38
2023-04-16T20:12:54.409Z,3.38
2023-04-16T20:15:21.101Z,2.53
2023-04-16T20:17:47.878Z,5.00
2023-04-16T20:20:15.858Z,3.97
2023-04-16T20:22:43.016Z,3.28
2023-04-16T20:25:10.113Z,4.28
2023-04-16T20:27:36.878Z,4.65
2023-04-16T20:30:05.459Z,4.55
2023-04-16T20:32:32.368Z,4.00
2023-04-16T20:34:59.765Z,3.30
2023-04-16T20:37:28.784Z,3.78
2023-04-16T20:39:56.094Z,5.47
2023-04-16T20:42:23.069Z,4.85
2023-04-16T20:44:56.149Z,4.33
2023-04-16T20:47:23.027Z,6.35
2023-04-16T20:49:49.898Z,3.92
2023-04-16T20:52:16.826Z,2.92
2023-04-16T20:54:43.681Z,3.85
2023-04-16T20:57:10.663Z,3.37
2023-04-16T20:59:37.504Z,3.00
2023-04-16T21:02:04.390Z,4.20
2023-04-16T21:04:31.679Z,2.53
2023-04-16T21:06:58.522Z,4.13
2023-04-16T21:09:25.345Z,2.93
2023-04-16T21:11:52.069Z,3.00
2023-04-16T21:14:18.798Z,2.70
2023-04-16T21:16:45.556Z,3.35
2023-04-16T21:19:12.397Z,4.18
2023-04-16T21:21:39.380Z,4.80
2023-04-16T21:24:06.548Z,2.15
2023-04-16T21:26:33.214Z,4.40
2023-04-16T21:28:59.996Z,2.47
2023-04-16T21:31:26.746Z,3.40
2023-04-16T21:33:53.636Z,3.37
2023-04-16T21:36:20.507Z,4.20
2023-04-16T21:38:47.323Z,3.58
2023-04-16T21:41:14.113Z,3.70
2023-04-16T21:43:40.748Z,4.22
2023-04-16T21:46:07.453Z,3.30
2023-04-16T21:48:34.202Z,2.83
2023-04-16T21:51:06.342Z,3.08
2023-04-16T21:53:33.479Z,2.78
2023-04-16T21:56:00.493Z,3.35
2023-04-16T21:58:27.286Z,1.93
2023-04-16T22:00:54.179Z,2.10
2023-04-16T22:03:28.322Z,1.60
2023-04-16T22:06:00.969Z,2.25
2023-04-16T22:08:28.942Z,1.85
2023-04-16T22:11:00.223Z,2.30
2023-04-16T22:13:27.812Z,2.35
2023-04-16T22:15:55.025Z,3.17
2023-04-16T22:18:27.088Z,3.65
2023-04-16T22:20:55.023Z,3.08
2023-04-16T22:23:25.540Z,3.03
2023-04-16T22:25:54.311Z,2.17
2023-04-16T22:28:21.170Z,2.30
2023-04-16T22:30:47.855Z,2.50
2023-04-16T22:33:14.639Z,2.95
2023-04-16T22:35:41.519Z,4.47
2023-04-16T22:38:08.283Z,2.90
2023-04-16T22:40:35.054Z,1.90
2023-04-16T22:43:01.736Z,3.28
2023-04-16T22:45:28.595Z,1.75
2023-04-16T22:47:55.323Z,2.27
2023-04-16T22:50:23.196Z,3.45
2023-04-16T22:52:49.986Z,1.55
2023-04-16T22:55:16.820Z,1.45
2023-04-16T22:57:43.655Z,2.15
2023-04-16T23:00:15.855Z,3.40
2023-04-16T23:02:43.229Z,2.92
2023-04-16T23:05:10.778Z,2.10
2023-04-16T23:07:37.685Z,1.90
2023-04-16T23:10:04.818Z,2.22
2023-04-16T23:12:31.514Z,2.80
2023-04-16T23:14:58.344Z,1.80
2023-04-16T23:17:25.198Z,1.90
2023-04-16T23:19:52.130Z,2.03
2023-04-16T23:22:18.880Z,2.67
2023-04-16T23:24:45.776Z,2.07
2023-04-16T23:27:12.610Z,1.83
2023-04-16T23:29:39.310Z,1.30
2023-04-16T23:32:06.048Z,1.52
2023-04-16T23:34:32.741Z,2.58
2023-04-16T23:36:59.453Z,1.60
2023-04-16T23:39:26.208Z,1.67
2023-04-16T23:41:52.948Z,1.55
2023-04-16T23:44:19.693Z,2.40
2023-04-16T23:46:46.412Z,2.33
2023-04-16T23:49:13.318Z,2.43
2023-04-16T23:51:40.222Z,2.75
2023-04-16T23:54:07.049Z,2.75
2023-04-16T23:56:33.856Z,7.75
2023-04-16T23:59:00.772Z,2.92
